Time;durP1;ratioP1;P1;durP2;ratioP2;P2;SDS_P1;SDS_P2;PMS_P1;PMS_P2;Temp;Humidity;BMP_temperature;BMP_pressure;BME280_temperature;BME280_humidity;BME280_pressure;Samples;Min_cycle;Max_cycle;Signal;HPM_P1;HPM_P2
2022/10/13 00:00:59;;;;;;;26.65;17.60;;;;;;;7.28;68.94;101528.67;1718742;82;20968;-67
2022/10/13 00:03:26;;;;;;;26.42;18.77;;;;;;;7.30;68.87;101529.25;1731633;82;21482;-66
2022/10/13 00:05:53;;;;;;;27.65;18.92;;;;;;;7.33;68.88;101522.71;1725117;82;21542;-65
2022/10/13 00:08:21;;;;;;;27.42;18.55;;;;;;;7.35;68.84;101526.80;1714792;82;21071;-65
2022/10/13 00:10:50;;;;;;;29.63;19.48;;;;;;;7.37;68.74;101524.75;1699619;84;21138;-65
2022/10/13 00:13:18;;;;;;;26.90;18.65;;;;;;;7.29;68.55;101524.46;1707275;82;20959;-65
2022/10/13 00:15:46;;;;;;;28.07;17.42;;;;;;;7.23;68.57;101524.48;1702365;84;21545;-66
2022/10/13 00:18:14;;;;;;;26.30;18.25;;;;;;;7.22;68.58;101526.85;1701511;82;21026;-66
2022/10/13 00:20:48;;;;;;;24.77;16.95;;;;;;;7.22;68.54;101529.51;1703777;82;21589;-66
2022/10/13 00:23:15;;;;;;;23.98;16.97;;;;;;;7.19;68.54;101525.42;1705819;81;21189;-66
2022/10/13 00:25:48;;;;;;;26.30;17.10;;;;;;;7.18;68.60;101525.66;1686437;82;21012;-66
2022/10/13 00:28:16;;;;;;;26.37;16.87;;;;;;;7.08;68.56;101531.41;1708465;82;21513;-66
2022/10/13 00:30:44;;;;;;;23.95;16.50;;;;;;;7.04;68.71;101519.55;1698774;84;21015;-65
2022/10/13 00:33:12;;;;;;;24.43;16.60;;;;;;;7.07;68.82;101527.61;1716283;81;21423;-65
2022/10/13 00:35:43;;;;;;;22.77;15.80;;;;;;;7.11;68.89;101528.33;1714184;82;22064;-65
2022/10/13 00:38:11;;;;;;;26.07;16.70;;;;;;;7.14;68.98;101527.91;1699468;81;21016;-66
2022/10/13 00:40:47;;;;;;;25.80;16.35;;;;;;;7.19;69.11;101528.59;1702758;84;21102;-66
2022/10/13 00:43:21;;;;;;;25.65;16.07;;;;;;;7.22;69.16;101520.20;1699711;82;20983;-66
2022/10/13 00:45:50;;;;;;;25.20;15.50;;;;;;;7.25;69.21;101519.27;1703530;82;20971;-65
2022/10/13 00:48:26;;;;;;;22.15;15.23;;;;;;;7.27;69.25;101515.91;1703429;82;21517;-65
2022/10/13 00:50:53;;;;;;;25.60;16.87;;;;;;;7.28;69.29;101517.52;1700164;84;20967;-65
2022/10/13 00:53:22;;;;;;;30.25;17.60;;;;;;;7.34;69.36;101517.20;1690776;82;20980;-65
2022/10/13 00:55:48;;;;;;;27.00;18.12;;;;;;;7.41;69.39;101519.83;1679873;82;21024;-65
2022/10/13 00:58:16;;;;;;;29.37;18.45;;;;;;;7.48;69.40;101513.95;1672516;85;21115;-66
2022/10/13 01:00:45;;;;;;;26.37;17.15;;;;;;;7.53;69.37;101518.11;1690386;83;21143;-66
2022/10/13 01:03:13;;;;;;;23.50;16.30;;;;;;;7.55;69.40;101509.94;1720486;81;21042;-65
2022/10/13 01:05:40;;;;;;;24.37;14.00;;;;;;;7.59;69.37;101517.26;1711681;82;21634;-66
2022/10/13 01:08:09;;;;;;;22.55;14.03;;;;;;;7.60;69.40;101508.27;1708836;82;21072;-66
2022/10/13 01:10:50;;;;;;;24.60;15.18;;;;;;;7.60;69.59;101518.91;1706955;84;21052;-66
2022/10/13 01:13:59;;;;;;;22.93;13.78;;;;;;;7.60;69.80;101510.93;1709781;82;21090;-66
2022/10/13 01:16:41;;;;;;;34.53;18.92;;;;;;;7.67;70.08;101521.02;1702290;84;21106;-67
2022/10/13 01:19:50;;;;;;;39.63;18.50;;;;;;;7.79;70.27;101498.52;1704597;82;21016;-65
2022/10/13 01:22:40;;;;;;;35.17;19.05;;;;;;;7.85;70.26;101504.31;1679017;84;21027;-66
2022/10/13 01:25:46;;;;;;;25.23;15.68;;;;;;;7.93;70.39;101513.38;1702894;84;21113;-65
2022/10/13 01:28:43;;;;;;;25.82;17.52;;;;;;;8.01;70.60;101512.80;1723207;81;21805;-65
2022/10/13 01:31:24;;;;;;;27.25;16.62;;;;;;;8.10;70.77;101515.50;1687454;82;21115;-65
2022/10/13 01:34:00;;;;;;;28.95;17.82;;;;;;;8.17;70.64;101509.09;1718350;81;21533;-65
2022/10/13 01:36:36;;;;;;;29.05;17.77;;;;;;;8.12;70.49;101503.59;1720962;83;21074;-66
2022/10/13 01:39:31;;;;;;;27.00;16.20;;;;;;;8.16;70.51;101510.12;1677348;83;21027;-65
2022/10/13 01:42:10;;;;;;;26.00;14.87;;;;;;;8.23;70.48;101509.55;1707404;81;21277;-65
2022/10/13 01:44:37;;;;;;;27.60;17.05;;;;;;;8.30;70.44;101508.69;1706934;81;20972;-65
2022/10/13 01:47:06;;;;;;;;;;;;;;;8.34;70.34;101500.03;1674771;82;21041;-65
2022/10/13 01:49:34;;;;;;;26.35;16.80;;;;;;;8.37;70.27;101500.92;1746971;82;20218;-65
2022/10/13 01:52:14;;;;;;;24.72;16.32;;;;;;;8.40;70.29;101505.04;1699228;81;21054;-66
2022/10/13 01:54:41;;;;;;;23.30;15.75;;;;;;;8.48;70.25;101504.73;1752488;81;21223;-65
2022/10/13 01:57:42;;;;;;;26.85;18.10;;;;;;;8.54;70.12;101503.87;1694838;82;21019;-65
2022/10/13 02:00:16;;;;;;;26.02;17.52;;;;;;;8.52;69.90;101503.26;1722871;82;21558;-66
2022/10/13 02:02:55;;;;;;;28.85;17.87;;;;;;;8.45;69.86;101504.66;1692113;83;21527;-66
2022/10/13 02:05:48;;;;;;;27.67;18.80;;;;;;;8.43;69.82;101504.08;1689503;83;21537;-66
2022/10/13 02:08:30;;;;;;;29.15;17.90;;;;;;;8.46;69.80;101501.50;1678355;84;21212;-65
2022/10/13 02:11:10;;;;;;;29.85;18.23;;;;;;;8.49;69.78;101501.06;1679850;83;21586;-66
2022/10/13 02:13:37;;;;;;;25.60;17.67;;;;;;;8.53;69.77;101506.24;1699299;83;21052;-65
2022/10/13 02:16:06;;;;;;;27.42;18.00;;;;;;;8.55;69.67;101501.48;1714913;81;21387;-65
2022/10/13 02:18:34;;;;;;;26.80;17.50;;;;;;;8.59;69.67;101505.36;1707951;82;21101;-65
2022/10/13 02:21:03;;;;;;;27.35;17.50;;;;;;;8.61;69.60;101506.46;1702203;84;21444;-65
2022/10/13 02:23:31;;;;;;;25.15;16.50;;;;;;;8.61;69.53;101505.94;1730228;82;21086;-65
2022/10/13 02:25:58;;;;;;;30.37;18.00;;;;;;;8.59;69.49;101504.56;1732088;82;21019;-66
2022/10/13 02:28:27;;;;;;;25.17;16.60;;;;;;;8.57;69.46;101503.43;1722252;82;21027;-66
2022/10/13 02:30:53;;;;;;;23.98;16.23;;;;;;;8.57;69.49;101501.29;1697534;83;21023;-65
2022/10/13 02:33:20;;;;;;;26.75;17.05;;;;;;;8.61;69.51;101509.13;1702986;84;21147;-66
2022/10/13 02:35:47;;;;;;;24.90;16.80;;;;;;;8.59;69.48;101506.70;1701364;84;21172;-66
2022/10/13 02:38:16;;;;;;;24.72;16.52;;;;;;;8.60;69.54;101500.33;1733315;82;21047;-66
2022/10/13 02:40:44;;;;;;;26.00;14.83;;;;;;;8.66;69.54;101494.13;1728654;82;21025;-66
2022/10/13 02:43:10;;;;;;;23.70;16.23;;;;;;;8.71;69.52;101493.45;1735623;82;21003;-65
2022/10/13 02:45:37;;;;;;;24.32;15.20;;;;;;;8.77;69.51;101502.41;1732453;82;21487;-65
2022/10/13 02:48:04;;;;;;;21.77;15.70;;;;;;;8.81;69.46;101502.25;1734306;81;21133;-66
2022/10/13 02:50:33;;;;;;;24.72;15.80;;;;;;;8.75;69.30;101501.81;1715381;83;21487;-67
2022/10/13 02:53:02;;;;;;;23.22;15.35;;;;;;;8.68;69.35;101500.02;1698925;84;21582;-66
2022/10/13 02:55:33;;;;;;;22.80;14.25;;;;;;;8.70;69.43;101499.82;1698739;84;21043;-66
2022/10/13 02:58:01;;;;;;;22.52;15.30;;;;;;;8.76;69.46;101501.60;1700946;83;21169;-66
2022/10/13 03:00:28;;;;;;;24.85;16.05;;;;;;;8.81;69.46;101504.40;1698917;83;21018;-65
2022/10/13 03:03:03;;;;;;;21.48;14.35;;;;;;;8.83;69.36;101504.20;1740721;81;21307;-66
2022/10/13 03:05:32;;;;;;;24.95;15.20;;;;;;;8.85;69.40;101503.44;1730886;81;21731;-66
2022/10/13 03:08:03;;;;;;;23.80;15.48;;;;;;;8.83;69.36;101501.01;1743230;81;21015;-67
2022/10/13 03:10:35;;;;;;;21.33;14.95;;;;;;;8.82;69.46;101495.91;1727474;82;21816;-66
2022/10/13 03:13:08;;;;;;;22.50;15.32;;;;;;;8.80;69.47;101505.45;1736244;81;20963;-65
2022/10/13 03:15:45;;;;;;;20.10;11.68;;;;;;;8.80;69.61;101500.11;1760902;81;21166;-67
2022/10/13 03:18:21;;;;;;;22.37;12.13;;;;;;;8.86;69.80;101497.91;1710495;81;21577;-66
2022/10/13 03:21:01;;;;;;;33.67;15.08;;;;;;;8.93;69.86;101495.97;1707678;82;21447;-66
2022/10/13 03:23:42;;;;;;;;;;;;;;;8.95;69.78;101502.92;1709416;82;20992;-66
2022/10/13 03:26:16;;;;;;;28.27;14.35;;;;;;;8.96;69.75;101500.05;1708142;82;20239;-67
2022/10/13 03:28:52;;;;;;;28.50;15.03;;;;;;;8.99;69.75;101502.27;1702626;82;21098;-66
2022/10/13 03:31:37;;;;;;;19.27;11.80;;;;;;;9.03;69.77;101494.12;1724196;81;20984;-66
2022/10/13 03:34:19;;;;;;;17.85;12.30;;;;;;;9.09;69.71;101501.74;1752564;81;21142;-65
2022/10/13 03:37:08;;;;;;;20.72;12.70;;;;;;;9.13;69.64;101500.25;1683375;82;21015;-66
2022/10/13 03:39:38;;;;;;;21.62;13.62;;;;;;;9.15;69.51;101499.52;1697403;82;21644;-65
2022/10/13 03:42:06;;;;;;;22.58;14.45;;;;;;;9.16;69.53;101505.13;1736457;81;21047;-65
2022/10/13 03:44:34;;;;;;;20.75;13.50;;;;;;;9.18;69.49;101504.89;1697988;82;21020;-66
2022/10/13 03:47:01;;;;;;;19.45;13.68;;;;;;;9.14;69.47;101501.34;1712377;81;21099;-66
2022/10/13 03:49:27;;;;;;;20.25;13.38;;;;;;;9.14;69.49;101511.20;1676160;82;21833;-66
2022/10/13 03:51:54;;;;;;;19.60;14.15;;;;;;;9.09;69.45;101507.88;1683110;83;21058;-67
2022/10/13 03:54:21;;;;;;;20.40;13.28;;;;;;;9.06;69.53;101508.33;1724266;81;21042;-67
2022/10/13 03:56:50;;;;;;;21.12;13.53;;;;;;;9.09;69.64;101499.08;1674559;85;21076;-66
2022/10/13 03:59:17;;;;;;;19.62;12.47;;;;;;;9.13;69.65;101503.72;1674557;85;21088;-66
2022/10/13 04:01:44;;;;;;;17.30;12.47;;;;;;;9.18;69.59;101507.56;1683108;82;21784;-65
2022/10/13 04:04:11;;;;;;;19.37;12.63;;;;;;;9.20;69.51;101498.84;1674595;83;21027;-66
2022/10/13 04:06:40;;;;;;;19.10;12.15;;;;;;;9.24;69.48;101505.34;1696777;84;20962;-66
2022/10/13 04:09:09;;;;;;;19.17;11.97;;;;;;;9.29;69.46;101496.97;1696818;84;21583;-67
2022/10/13 04:11:36;;;;;;;19.65;12.25;;;;;;;9.33;69.44;101499.47;1695796;83;21024;-65
2022/10/13 04:14:04;;;;;;;16.62;10.00;;;;;;;9.39;69.43;101507.91;1694046;83;21102;-66
2022/10/13 04:16:31;;;;;;;15.90;11.00;;;;;;;9.47;69.38;101515.30;1735482;82;21146;-67
2022/10/13 04:19:03;;;;;;;19.92;11.78;;;;;;;9.49;69.20;101515.37;1726802;83;21459;-65
2022/10/13 04:21:32;;;;;;;17.70;11.57;;;;;;;9.46;69.15;101519.81;1724642;81;21059;-67
2022/10/13 04:23:59;;;;;;;16.60;12.20;;;;;;;9.39;69.11;101522.57;1721821;82;21054;-67
2022/10/13 04:26:27;;;;;;;20.23;13.15;;;;;;;9.29;69.13;101518.82;1735337;82;21171;-65
2022/10/13 04:28:54;;;;;;;21.82;13.25;;;;;;;9.22;69.21;101513.57;1706236;84;21004;-66
2022/10/13 04:31:22;;;;;;;19.25;13.45;;;;;;;9.19;69.27;101522.02;1711110;82;20990;-66
2022/10/13 04:33:50;;;;;;;21.60;14.30;;;;;;;9.20;69.35;101525.48;1706921;81;21044;-66
2022/10/13 04:36:17;;;;;;;21.10;13.18;;;;;;;9.22;69.46;101525.57;1706214;81;21058;-67
2022/10/13 04:38:44;;;;;;;18.48;12.98;;;;;;;9.25;69.47;101522.98;1673541;85;21119;-66
2022/10/13 04:41:12;;;;;;;19.67;13.18;;;;;;;9.28;69.58;101523.84;1724276;82;21094;-66
2022/10/13 04:43:39;;;;;;;20.97;13.13;;;;;;;9.33;69.63;101519.99;1722895;82;21532;-66
2022/10/13 04:46:17;;;;;;;18.98;12.00;;;;;;;9.37;69.59;101522.50;1686673;83;21629;-66
2022/10/13 04:48:45;;;;;;;17.62;11.68;;;;;;;9.36;69.59;101524.35;1729405;82;21521;-66
2022/10/13 04:51:17;;;;;;;19.52;12.18;;;;;;;9.30;69.67;101523.91;1723968;82;21178;-66
2022/10/13 04:53:43;;;;;;;19.92;13.35;;;;;;;9.29;69.78;101524.16;1725806;83;21552;-67
2022/10/13 04:56:14;;;;;;;17.32;12.07;;;;;;;9.31;69.88;101527.39;1733493;81;21071;-67
2022/10/13 04:58:42;;;;;;;21.82;13.40;;;;;;;9.36;69.88;101525.69;1710774;83;20948;-67
2022/10/13 05:01:13;;;;;;;17.98;12.75;;;;;;;9.44;69.93;101528.55;1745123;81;21629;-66
2022/10/13 05:03:40;;;;;;;15.72;11.45;;;;;;;9.52;69.89;101527.45;1709094;82;21310;-65
2022/10/13 05:06:21;;;;;;;18.32;11.75;;;;;;;9.59;69.87;101518.83;1717097;81;21110;-65
2022/10/13 05:08:49;;;;;;;16.42;11.43;;;;;;;9.65;69.78;101529.13;1714280;82;21102;-66
2022/10/13 05:11:18;;;;;;;16.65;11.68;;;;;;;9.70;69.72;101527.38;1705940;82;21123;-67
2022/10/13 05:13:48;;;;;;;16.77;11.15;;;;;;;9.75;69.72;101525.37;1718887;81;21023;-67
2022/10/13 05:16:18;;;;;;;17.50;11.25;;;;;;;9.76;69.62;101525.14;1715270;82;21096;-66
2022/10/13 05:18:44;;;;;;;18.17;11.15;;;;;;;9.72;69.62;101524.50;1719945;82;21504;-66
2022/10/13 05:21:16;;;;;;;19.23;11.43;;;;;;;9.71;69.75;101529.55;1721375;82;21513;-68
2022/10/13 05:23:44;;;;;;;18.07;11.00;;;;;;;9.72;69.80;101535.17;1722786;82;21581;-67
2022/10/13 05:26:14;;;;;;;15.90;11.12;;;;;;;9.78;69.83;101539.08;1697260;84;21082;-68
2022/10/13 05:28:41;;;;;;;15.70;11.15;;;;;;;9.85;69.90;101537.64;1725364;81;21231;-66
2022/10/13 05:31:15;;;;;;;14.55;10.05;;;;;;;9.95;69.92;101537.91;1727516;82;21488;-66
2022/10/13 05:33:44;;;;;;;16.65;10.28;;;;;;;10.05;69.92;101538.16;1719814;82;21057;-65
2022/10/13 05:36:17;;;;;;;14.35;8.95;;;;;;;10.15;69.81;101540.79;1727381;81;21007;-66
2022/10/13 05:38:45;;;;;;;14.13;8.60;;;;;;;10.14;69.48;101541.84;1729956;81;21124;-68
2022/10/13 05:41:13;;;;;;;16.05;9.10;;;;;;;10.09;69.27;101545.98;1669334;83;21293;-68
2022/10/13 05:43:41;;;;;;;17.70;9.93;;;;;;;10.06;69.20;101549.11;1716348;82;21055;-69
2022/10/13 05:46:08;;;;;;;15.55;9.13;;;;;;;10.12;69.13;101551.92;1719976;82;21075;-66
2022/10/13 05:48:36;;;;;;;14.53;8.35;;;;;;;10.16;69.05;101555.75;1709432;81;21103;-67
2022/10/13 05:51:15;;;;;;;40.78;20.48;;;;;;;10.19;68.82;101552.63;1711267;82;21035;-66
2022/10/13 05:53:46;;;;;;;17.90;9.90;;;;;;;10.23;68.64;101556.45;1715932;81;21104;-67
2022/10/13 05:56:20;;;;;;;16.93;9.70;;;;;;;10.27;68.42;101559.82;1708583;82;21529;-67
2022/10/13 05:58:54;;;;;;;18.12;10.68;;;;;;;10.28;68.21;101560.11;1729943;81;20972;-66
2022/10/13 06:01:24;;;;;;;16.40;9.40;;;;;;;10.33;68.10;101562.07;1757874;81;21592;-67
2022/10/13 06:03:52;;;;;;;15.48;8.43;;;;;;;10.43;67.99;101568.18;1757694;81;21522;-67
2022/10/13 06:06:19;;;;;;;14.30;8.60;;;;;;;10.49;67.74;101569.41;1757809;81;21145;-67
2022/10/13 06:08:46;;;;;;;16.70;8.40;;;;;;;10.57;67.50;101565.59;1711756;82;20999;-67
2022/10/13 06:11:13;;;;;;;20.23;9.98;;;;;;;10.61;67.30;101562.74;1735637;82;20995;-65
2022/10/13 06:13:39;;;;;;;13.53;9.00;;;;;;;10.62;67.20;101564.36;1733043;82;21147;-67
2022/10/13 06:16:06;;;;;;;15.80;9.83;;;;;;;10.70;67.04;101563.22;1732678;82;21537;-67
2022/10/13 06:18:34;;;;;;;14.43;9.18;;;;;;;10.75;66.87;101561.98;1735871;82;20936;-66
2022/10/13 06:21:01;;;;;;;15.65;8.83;;;;;;;10.79;66.61;101558.63;1735683;82;21027;-66
2022/10/13 06:23:29;;;;;;;23.30;13.10;;;;;;;10.83;66.46;101558.97;1728146;82;21027;-66
2022/10/13 06:25:57;;;;;;;21.37;12.63;;;;;;;10.83;66.16;101562.17;1727657;82;21464;-66
2022/10/13 06:28:26;;;;;;;18.50;10.93;;;;;;;10.85;66.24;101556.05;1728798;83;21153;-67
2022/10/13 06:30:55;;;;;;;17.55;10.60;;;;;;;10.92;66.24;101549.52;1728601;83;21247;-67
2022/10/13 06:33:24;;;;;;;14.63;8.40;;;;;;;10.94;66.04;101559.47;1716256;82;20955;-67
2022/10/13 06:35:53;;;;;;;16.52;9.53;;;;;;;10.89;65.98;101557.20;1703559;84;21046;-67
2022/10/13 06:38:20;;;;;;;33.00;11.47;;;;;;;10.87;66.09;101570.00;1703432;84;21022;-67
2022/10/13 06:40:48;;;;;;;20.63;9.77;;;;;;;10.93;66.15;101569.88;1706976;82;21431;-68
2022/10/13 06:43:14;;;;;;;42.63;18.43;;;;;;;11.07;66.18;101566.95;1711819;83;21163;-68
2022/10/13 06:45:41;;;;;;;27.10;13.53;;;;;;;11.22;66.10;101565.41;1728007;83;21291;-67
2022/10/13 06:48:09;;;;;;;25.17;12.90;;;;;;;11.39;65.90;101573.50;1709480;83;21242;-67
2022/10/13 06:50:35;;;;;;;20.20;10.60;;;;;;;11.45;65.55;101575.23;1698770;84;21550;-67
2022/10/13 06:53:02;;;;;;;19.47;10.80;;;;;;;11.55;65.38;101568.44;1698940;84;21582;-66
2022/10/13 06:55:29;;;;;;;16.13;8.80;;;;;;;11.66;65.31;101568.41;1698815;84;21686;-67
2022/10/13 06:57:56;;;;;;;15.03;9.00;;;;;;;11.72;64.74;101559.95;1703297;84;21641;-67
2022/10/13 07:00:23;;;;;;;14.10;8.07;;;;;;;11.76;64.55;101565.10;1703209;84;21256;-68
2022/10/13 07:02:51;;;;;;;13.40;8.63;;;;;;;11.85;64.41;101565.56;1706443;84;21239;-67
2022/10/13 07:05:18;;;;;;;22.23;9.77;;;;;;;11.92;64.23;101563.02;1703317;83;21814;-67
2022/10/13 07:07:45;;;;;;;14.80;8.53;;;;;;;12.03;64.04;101572.56;1673670;85;21275;-66
2022/10/13 07:10:12;;;;;;;13.67;8.20;;;;;;;12.15;63.75;101566.62;1703313;84;21300;-68
2022/10/13 07:12:38;;;;;;;13.57;7.70;;;;;;;12.25;63.42;101562.77;1703161;84;21260;-66
2022/10/13 07:15:08;;;;;;;12.70;8.03;;;;;;;12.35;63.09;101568.28;1709316;82;21430;-68
2022/10/13 07:17:36;;;;;;;13.50;8.17;;;;;;;12.45;62.79;101570.31;1702756;84;21331;-68
2022/10/13 07:20:04;;;;;;;15.87;9.47;;;;;;;12.51;62.51;101563.17;1724909;82;21384;-67
2022/10/13 07:22:32;;;;;;;18.17;9.63;;;;;;;12.58;62.26;101561.94;1705744;82;21348;-67
2022/10/13 07:24:59;;;;;;;14.70;8.70;;;;;;;12.65;62.13;101567.12;1709181;82;21726;-68
2022/10/13 07:27:26;;;;;;;14.10;8.87;;;;;;;12.74;61.90;101560.30;1702525;84;21141;-66
2022/10/13 07:29:53;;;;;;;14.63;9.37;;;;;;;12.85;61.70;101557.22;1702678;83;21265;-67
2022/10/13 07:32:19;;;;;;;15.20;9.00;;;;;;;12.89;61.46;101563.16;1706921;82;21178;-66
2022/10/13 07:34:46;;;;;;;15.83;8.43;;;;;;;12.91;61.24;101560.25;1704759;82;21275;-66
2022/10/13 07:37:13;;;;;;;15.77;8.47;;;;;;;12.97;61.10;101569.19;1702843;84;21221;-67
2022/10/13 07:39:40;;;;;;;15.17;8.77;;;;;;;13.03;60.85;101570.84;1703152;83;21069;-67
2022/10/13 07:42:07;;;;;;;13.43;8.70;;;;;;;13.11;60.85;101565.07;1708488;82;21276;-67
2022/10/13 07:44:34;;;;;;;15.40;8.87;;;;;;;13.13;60.74;101562.96;1722493;82;21294;-67
2022/10/13 07:47:00;;;;;;;15.57;9.73;;;;;;;13.12;60.70;101561.31;1732028;82;21194;-69
2022/10/13 07:49:27;;;;;;;19.17;8.93;;;;;;;13.15;60.74;101562.97;1703015;84;21813;-68
2022/10/13 07:51:54;;;;;;;38.30;11.23;;;;;;;13.22;60.71;101561.44;1703038;84;21325;-67
2022/10/13 07:54:23;;;;;;;21.27;10.03;;;;;;;13.27;60.38;101561.55;1702780;84;21214;-68
2022/10/13 07:56:54;;;;;;;13.57;8.10;;;;;;;13.36;60.33;101568.10;1702813;84;21359;-67
2022/10/13 07:59:20;;;;;;;17.20;9.47;;;;;;;13.49;60.04;101562.05;1703227;84;21668;-68
2022/10/13 08:01:47;;;;;;;20.70;11.30;;;;;;;13.64;59.77;101560.07;1702963;84;21238;-68
2022/10/13 08:04:14;;;;;;;21.20;10.67;;;;;;;13.64;59.77;101560.07;1703131;84;21413;-68
2022/10/13 08:06:42;;;;;;;13.37;8.80;;;;;;;13.73;59.60;101560.70;1708465;82;21330;-67
2022/10/13 08:09:10;;;;;;;18.67;9.70;;;;;;;13.91;59.03;101553.34;1703071;84;21498;-68
2022/10/13 08:11:38;;;;;;;14.43;8.73;;;;;;;13.91;59.03;101553.34;1709043;82;21491;-67
2022/10/13 08:14:04;;;;;;;14.90;8.67;;;;;;;13.95;58.67;101555.29;1702964;84;21566;-68
2022/10/13 08:16:32;;;;;;;13.13;8.03;;;;;;;13.99;58.71;101551.56;1703352;82;21488;-67
2022/10/13 08:19:00;;;;;;;19.60;9.43;;;;;;;13.98;58.26;101558.78;1730777;82;21726;-67
2022/10/13 08:21:27;;;;;;;17.43;8.80;;;;;;;13.98;58.26;101558.78;1725123;82;21541;-68
2022/10/13 08:24:12;;;;;;;14.43;7.90;;;;;;;14.05;58.33;101551.88;1708501;82;21556;-68
2022/10/13 08:26:38;;;;;;;13.58;7.87;;;;;;;14.22;58.26;101547.72;1702962;84;21780;-68
2022/10/13 08:29:06;;;;;;;11.30;6.73;;;;;;;14.38;58.07;101545.94;1708964;82;21161;-67
2022/10/13 08:31:34;;;;;;;14.83;7.20;;;;;;;14.50;57.94;101546.56;1702897;84;21547;-68
2022/10/13 08:34:01;;;;;;;12.27;7.27;;;;;;;14.53;56.95;101548.77;1703550;82;21709;-67
2022/10/13 08:36:28;;;;;;;14.47;7.70;;;;;;;14.59;57.02;101553.11;1723738;82;21708;-68
2022/10/13 08:38:55;;;;;;;12.17;7.27;;;;;;;14.70;57.04;101553.44;1704950;82;21728;-67
2022/10/13 08:41:38;;;;;;;13.90;6.83;;;;;;;14.86;56.46;101554.88;1710593;81;21763;-68
2022/10/13 08:44:39;;;;;;;12.83;7.50;;;;;;;14.92;55.68;101553.84;1702651;84;22258;-67
2022/10/13 08:47:36;;;;;;;13.93;6.70;;;;;;;14.96;55.55;101555.73;1706634;82;22250;-68
2022/10/13 08:50:21;;;;;;;11.03;4.60;;;;;;;15.06;55.36;101558.20;1695947;84;21669;-67
2022/10/13 08:53:02;;;;;;;10.40;5.37;;;;;;;15.13;54.33;101560.11;1704651;82;22192;-67
2022/10/13 08:55:37;;;;;;;11.40;6.27;;;;;;;15.16;53.98;101559.05;1703250;84;21691;-67
2022/10/13 08:58:25;;;;;;;13.53;5.83;;;;;;;15.14;53.79;101561.21;1705498;82;21085;-68
2022/10/13 09:01:11;;;;;;;15.07;6.20;;;;;;;15.14;53.86;101563.91;1701742;82;21648;-67
2022/10/13 09:03:55;;;;;;;12.10;6.67;;;;;;;15.13;54.04;101564.95;1702993;82;21854;-69
2022/10/13 09:06:27;;;;;;;12.73;6.60;;;;;;;15.04;53.76;101565.20;1688389;82;22216;-67
2022/10/13 09:09:01;;;;;;;13.72;6.65;;;;;;;14.96;54.18;101563.00;1682770;82;21754;-68
2022/10/13 09:11:32;;;;;;;12.70;5.73;;;;;;;15.04;54.31;101564.37;1678563;82;21088;-68
2022/10/13 09:14:02;;;;;;;11.75;6.78;;;;;;;15.12;54.13;101567.38;1708572;82;21666;-66
2022/10/13 09:16:41;;;;;;;19.02;8.48;;;;;;;15.12;53.94;101571.95;1706533;82;21574;-67
2022/10/13 09:19:30;;;;;;;17.20;8.07;;;;;;;15.13;54.24;101567.64;1681730;84;21031;-68
2022/10/13 09:22:13;;;;;;;12.57;6.83;;;;;;;15.25;54.26;101568.78;1731920;82;21746;-70
2022/10/13 09:24:41;;;;;;;27.67;8.93;;;;;;;15.28;53.78;101571.48;1732276;82;21479;-67
2022/10/13 09:27:14;;;;;;;22.50;9.30;;;;;;;15.20;53.95;101570.93;1713281;82;21250;-68
2022/10/13 09:29:43;;;;;;;15.40;7.57;;;;;;;15.18;54.10;101557.45;1703843;82;21648;-67
2022/10/13 09:32:24;;;;;;;17.23;7.17;;;;;;;15.25;54.28;101569.59;1676225;84;21087;-68
2022/10/13 09:34:51;;;;;;;11.63;6.27;;;;;;;15.36;54.04;101570.97;1680094;82;21125;-67
2022/10/13 09:37:24;;;;;;;11.07;5.77;;;;;;;15.42;53.99;101566.68;1717883;82;21102;-69
2022/10/13 09:40:13;;;;;;;10.73;5.43;;;;;;;15.43;53.74;101563.45;1703594;84;22289;-68
2022/10/13 09:42:41;;;;;;;11.07;5.87;;;;;;;15.32;53.23;101552.39;1705085;82;22308;-67
2022/10/13 09:45:17;;;;;;;10.63;4.90;;;;;;;15.20;53.38;101554.78;1723828;82;21819;-69
2022/10/13 09:48:01;;;;;;;8.53;4.63;;;;;;;15.22;53.65;101549.92;1714214;82;21673;-68
2022/10/13 09:50:30;;;;;;;9.27;4.67;;;;;;;15.20;53.21;101551.25;1705643;81;21724;-68
2022/10/13 09:53:39;;;;;;;11.53;4.70;;;;;;;15.14;53.26;101550.45;1710259;82;22125;-68
2022/10/13 09:56:25;;;;;;;9.03;4.53;;;;;;;15.18;53.11;101547.49;1696780;84;21695;-66
2022/10/13 09:59:15;;;;;;;12.90;5.27;;;;;;;15.22;52.76;101545.08;1703067;84;21700;-68
2022/10/13 10:01:45;;;;;;;9.28;5.10;;;;;;;15.18;53.00;101544.00;1688335;82;21673;-68
2022/10/13 10:04:23;;;;;;;12.27;5.23;;;;;;;15.15;52.63;101544.52;1674931;84;21122;-68
2022/10/13 10:06:49;;;;;;;16.73;5.53;;;;;;;15.14;53.11;101539.69;1690618;82;21824;-67
2022/10/13 10:09:40;;;;;;;12.20;4.80;;;;;;;15.14;53.11;101539.69;1701555;84;21070;-70
2022/10/13 10:12:14;;;;;;;13.27;5.43;;;;;;;15.14;53.05;101538.34;1720002;82;21709;-67
2022/10/13 10:14:42;;;;;;;11.77;5.17;;;;;;;15.15;52.26;101542.64;1721420;82;21796;-67
2022/10/13 10:17:41;;;;;;;11.63;4.30;;;;;;;15.12;52.09;101536.44;1708675;82;21023;-67
2022/10/13 10:20:38;;;;;;;11.10;4.83;;;;;;;15.12;52.09;101536.44;1726824;82;21155;-69
2022/10/13 10:23:16;;;;;;;9.80;4.43;;;;;;;15.36;52.46;101544.05;1696181;82;20947;-68
2022/10/13 10:25:50;;;;;;;9.90;3.93;;;;;;;15.32;51.73;101532.20;1704692;82;20988;-70
2022/10/13 10:29:11;;;;;;;9.10;4.03;;;;;;;15.32;51.73;101532.20;1703244;83;21534;-68
2022/10/13 10:32:05;;;;;;;10.00;5.07;;;;;;;15.31;51.65;101541.36;1677125;84;21548;-67
2022/10/13 10:34:59;;;;;;;9.43;4.67;;;;;;;15.23;51.85;101539.45;1702477;84;21585;-69
2022/10/13 10:38:02;;;;;;;10.50;4.37;;;;;;;15.30;51.88;101531.13;1690938;84;21015;-68
2022/10/13 10:40:39;;;;;;;11.77;4.17;;;;;;;15.39;51.50;101532.21;1678719;84;21116;-68
2022/10/13 10:43:37;;;;;;;10.77;4.63;;;;;;;15.47;51.64;101527.67;1701194;84;22300;-68
2022/10/13 10:46:17;;;;;;;11.87;5.00;;;;;;;15.60;51.50;101522.86;1725607;83;21086;-67
2022/10/13 10:48:45;;;;;;;10.87;4.13;;;;;;;15.75;51.34;101522.89;1713004;81;21235;-69
2022/10/13 10:51:13;;;;;;;10.13;4.50;;;;;;;15.85;51.00;101515.36;1705182;82;21011;-68
2022/10/13 10:54:17;;;;;;;10.30;4.27;;;;;;;15.90;50.51;101511.33;1674618;84;21780;-68
2022/10/13 10:57:00;;;;;;;7.93;4.10;;;;;;;15.90;50.51;101511.33;1705233;82;21054;-67
2022/10/13 11:00:03;;;;;;;9.40;4.03;;;;;;;15.94;50.35;101519.14;1714446;82;21066;-67
2022/10/13 11:02:55;;;;;;;10.63;3.90;;;;;;;15.99;50.04;101512.92;1701942;84;21366;-67
2022/10/13 11:05:21;;;;;;;10.87;5.13;;;;;;;16.04;50.15;101515.09;1727147;82;21050;-67
2022/10/13 11:07:53;;;;;;;13.40;5.20;;;;;;;16.09;49.70;101511.06;1732476;82;21003;-67
2022/10/13 11:10:22;;;;;;;10.53;5.03;;;;;;;16.10;49.44;101509.97;1727849;82;21503;-68
2022/10/13 11:12:55;;;;;;;14.77;4.90;;;;;;;16.15;49.26;101509.95;1732626;82;21059;-68
2022/10/13 11:15:43;;;;;;;12.67;4.90;;;;;;;16.20;49.22;101512.40;1732674;82;21220;-69
2022/10/13 11:18:58;;;;;;;12.13;5.20;;;;;;;16.15;49.06;101511.30;1729623;82;21427;-69
2022/10/13 11:21:47;;;;;;;24.33;7.30;;;;;;;16.06;49.11;101506.75;1714425;82;21062;-67
2022/10/13 11:24:42;;;;;;;15.77;5.23;;;;;;;16.03;49.43;101508.09;1702862;84;21103;-68
2022/10/13 11:27:18;;;;;;;10.00;4.63;;;;;;;16.00;49.31;101507.83;1704928;82;20971;-68
2022/10/13 11:29:57;;;;;;;24.80;6.87;;;;;;;15.90;49.55;101508.09;1705183;82;21577;-67
2022/10/13 11:35:09;;;;;;;11.00;5.07;;;;;;;15.92;50.16;101509.16;1726611;82;21071;-68
2022/10/13 11:38:05;;;;;;;30.47;7.53;;;;;;;15.93;49.93;101507.55;1732604;82;21058;-68
2022/10/13 11:41:04;;;;;;;13.03;6.00;;;;;;;15.93;49.93;101507.55;1712641;82;21463;-68
2022/10/13 11:43:54;;;;;;;11.27;5.20;;;;;;;15.93;49.86;101506.75;1732547;82;21499;-69
2022/10/13 11:46:48;;;;;;;13.50;5.67;;;;;;;15.93;50.03;101501.36;1709716;82;21727;-68
2022/10/13 11:49:26;;;;;;;16.37;5.80;;;;;;;15.94;50.06;101500.28;1703313;84;21111;-68